メインページ
METAR-TAF:

METAR-TAF

空港 :

マル・デル・プラタ, アルゼンチン

緯度: 37-56S, 経度: 057-35W, 海抜: 18m

現時点の気象観測

当レポートは28分前の21:00(UTC)に作成
北/北西の風 5kt
気温 18°C
湿度 52%
気圧 1010 hPa
視程10km以上
1,500メートル以下は雲なし、積乱雲なし

METAR: SAZM 202100Z 34005KT CAVOK 18/08 Q1010

時間: 18:28 (21:28 UTC)

予報

当レポートは4時間28分前の17:00(UTC)に作成
予報は20日の 18時(UTC)から 21日の 18時(UTC)まで有効
北/北西の風 10kt
視程10km以上
1,500メートル以下は雲なし、積乱雲なし
21日の 00時(UTC)から 21日の 03時(UTC)まで徐々に
南西の風 10kt
視程: 8000m
高度1500ftの千切れ雲あり
高度4000ftの曇り
21日の 05時(UTC)から 21日の 06時(UTC)まで徐々に
南西の風 15kt
視程: 8000m
高度800ftの曇り
霧雨
21日の 12時(UTC)から 21日の 15時(UTC)まで徐々に
南/南西の風 10kt
視程10km以上
高度2000ftの千切れ雲あり

TAF: SAZM 201700Z 2018/2118 34010KT CAVOK TX19/2019Z TN07/2110Z BECMG 2100/2103 22010KT 8000 RA BKN015 OVC040 BECMG 2105/2106 22015KT 8000 DZ OVC008 BECMG 2112/2115 20010KT 9999 BKN020

4,000以上の空港の気象観測と天気予報(METAR報とTAF報)

利用可能な観測所は地図上に黄色い丸と赤い丸で示す。

丸の上にカーソルを重ねると観測所名を参照できる。

次にクリックすると気象観測と天気予報を参照できる。

マップの切り替え:黒色「×」印の緑ボタンをクリックして拡大、「-」印の緑ボタンをクリックして縮小、緑色の三角印をクリックして隣りの地図に切り替え


METAR-TAF: